sensor_id;sensor_type;location;lat;lon;timestamp;pressure;altitude;pressure_sealevel;temperature;humidity
56334;BME280;42240;53.626;55.886;2023-02-11T00:00:40;79191.53;;;-145.10;100.00
56334;BME280;42240;53.626;55.886;2023-02-11T00:02:13;79124.25;;;-145.10;100.00
56334;BME280;42240;53.626;55.886;2023-02-11T00:03:46;79122.28;;;-145.10;100.00
56334;BME280;42240;53.626;55.886;2023-02-11T00:05:20;79187.56;;;-145.10;100.00
56334;BME280;42240;53.626;55.886;2023-02-11T00:06:53;79134.16;;;-145.10;100.00
56334;BME280;42240;53.626;55.886;2023-02-11T00:08:27;79130.19;;;-145.10;100.00
56334;BME280;42240;53.626;55.886;2023-02-11T00:10:00;79169.78;;;-145.10;100.00
56334;BME280;42240;53.626;55.886;2023-02-11T00:11:36;79126.25;;;-145.10;100.00
56334;BME280;42240;53.626;55.886;2023-02-11T00:13:09;79138.09;;;-145.10;100.00
56334;BME280;42240;53.626;55.886;2023-02-11T00:14:42;79130.19;;;-145.10;100.00
56334;BME280;42240;53.626;55.886;2023-02-11T00:16:19;79136.13;;;-145.10;100.00
56334;BME280;42240;53.626;55.886;2023-02-11T00:17:52;79122.28;;;-145.10;100.00
56334;BME280;42240;53.626;55.886;2023-02-11T00:19:25;79120.31;;;-145.10;100.00
56334;BME280;42240;53.626;55.886;2023-02-11T00:20:58;79126.25;;;-145.10;100.00
56334;BME280;42240;53.626;55.886;2023-02-11T00:22:31;79124.25;;;-145.10;100.00
56334;BME280;42240;53.626;55.886;2023-02-11T00:24:04;79120.31;;;-145.10;100.00
56334;BME280;42240;53.626;55.886;2023-02-11T00:25:40;79155.91;;;-145.10;100.00
56334;BME280;42240;53.626;55.886;2023-02-11T00:27:13;79110.41;;;-145.10;100.00
56334;BME280;42240;53.626;55.886;2023-02-11T00:28:46;79112.38;;;-145.10;100.00
56334;BME280;42240;53.626;55.886;2023-02-11T00:30:20;79114.38;;;-145.10;100.00
56334;BME280;42240;53.626;55.886;2023-02-11T00:31:53;79128.22;;;-145.10;100.00
56334;BME280;42240;53.626;55.886;2023-02-11T00:33:28;79132.19;;;-145.10;100.00
56334;BME280;42240;53.626;55.886;2023-02-11T00:35:01;79128.22;;;-145.10;100.00
56334;BME280;42240;53.626;55.886;2023-02-11T00:36:35;79136.13;;;-145.10;100.00
56334;BME280;42240;53.626;55.886;2023-02-11T00:38:08;79136.13;;;-145.10;100.00
56334;BME280;42240;53.626;55.886;2023-02-11T00:39:42;79140.09;;;-145.10;100.00
56334;BME280;42240;53.626;55.886;2023-02-11T00:41:15;79149.97;;;-145.10;100.00
56334;BME280;42240;53.626;55.886;2023-02-11T00:42:48;79128.22;;;-145.10;100.00
56334;BME280;42240;53.626;55.886;2023-02-11T00:44:21;79132.19;;;-145.10;100.00
56334;BME280;42240;53.626;55.886;2023-02-11T00:45:55;79130.19;;;-145.10;100.00
56334;BME280;42240;53.626;55.886;2023-02-11T00:47:28;79128.22;;;-145.10;100.00
56334;BME280;42240;53.626;55.886;2023-02-11T00:49:01;79128.22;;;-145.10;100.00
56334;BME280;42240;53.626;55.886;2023-02-11T00:50:34;79120.31;;;-145.10;100.00
56334;BME280;42240;53.626;55.886;2023-02-11T00:52:07;79122.28;;;-145.10;100.00
56334;BME280;42240;53.626;55.886;2023-02-11T00:53:40;79120.31;;;-145.10;100.00
56334;BME280;42240;53.626;55.886;2023-02-11T00:55:14;79128.22;;;-145.10;100.00
56334;BME280;42240;53.626;55.886;2023-02-11T00:56:47;79138.09;;;-145.10;100.00
56334;BME280;42240;53.626;55.886;2023-02-11T00:58:21;79189.56;;;-145.10;100.00
56334;BME280;42240;53.626;55.886;2023-02-11T00:59:55;79140.09;;;-145.10;100.00
56334;BME280;42240;53.626;55.886;2023-02-11T01:01:28;79138.09;;;-145.10;100.00
56334;BME280;42240;53.626;55.886;2023-02-11T01:03:01;79140.09;;;-145.10;100.00
56334;BME280;42240;53.626;55.886;2023-02-11T01:04:34;79146.03;;;-145.10;100.00
56334;BME280;42240;53.626;55.886;2023-02-11T01:06:08;79138.09;;;-145.10;100.00
56334;BME280;42240;53.626;55.886;2023-02-11T01:07:42;79130.19;;;-145.10;100.00
56334;BME280;42240;53.626;55.886;2023-02-11T01:09:16;79136.13;;;-145.10;100.00
56334;BME280;42240;53.626;55.886;2023-02-11T01:10:57;79134.16;;;-145.10;100.00
56334;BME280;42240;53.626;55.886;2023-02-11T01:12:30;79151.97;;;-145.10;100.00
56334;BME280;42240;53.626;55.886;2023-02-11T01:14:07;79140.09;;;-145.10;100.00
56334;BME280;42240;53.626;55.886;2023-02-11T01:15:41;79171.75;;;-145.10;100.00
56334;BME280;42240;53.626;55.886;2023-02-11T01:17:14;79167.78;;;-145.10;100.00
56334;BME280;42240;53.626;55.886;2023-02-11T01:18:47;79179.66;;;-145.10;100.00
56334;BME280;42240;53.626;55.886;2023-02-11T01:20:23;79183.63;;;-145.10;100.00
56334;BME280;42240;53.626;55.886;2023-02-11T01:21:57;79179.66;;;-145.10;100.00
56334;BME280;42240;53.626;55.886;2023-02-11T01:23:30;79191.53;;;-145.10;100.00
56334;BME280;42240;53.626;55.886;2023-02-11T01:25:04;79189.56;;;-145.10;100.00
56334;BME280;42240;53.626;55.886;2023-02-11T01:26:37;79193.50;;;-145.10;100.00
56334;BME280;42240;53.626;55.886;2023-02-11T01:28:18;79199.44;;;-145.10;100.00
56334;BME280;42240;53.626;55.886;2023-02-11T01:29:51;79207.38;;;-145.10;100.00
56334;BME280;42240;53.626;55.886;2023-02-11T01:31:24;79203.41;;;-145.10;100.00
56334;BME280;42240;53.626;55.886;2023-02-11T01:32:58;79201.44;;;-145.10;100.00
56334;BME280;42240;53.626;55.886;2023-02-11T01:34:31;79199.44;;;-145.10;100.00
56334;BME280;42240;53.626;55.886;2023-02-11T01:36:05;79217.25;;;-145.10;100.00
56334;BME280;42240;53.626;55.886;2023-02-11T01:37:38;79227.16;;;-145.10;100.00
56334;BME280;42240;53.626;55.886;2023-02-11T01:39:11;79262.78;;;-145.10;100.00
56334;BME280;42240;53.626;55.886;2023-02-11T01:40:56;79213.31;;;-145.10;100.00
56334;BME280;42240;53.626;55.886;2023-02-11T01:42:31;79262.78;;;-145.10;100.00
56334;BME280;42240;53.626;55.886;2023-02-11T01:46:03;79217.25;;;-145.10;100.00
56334;BME280;42240;53.626;55.886;2023-02-11T01:47:37;79207.38;;;-145.10;100.00
56334;BME280;42240;53.626;55.886;2023-02-11T01:49:13;79211.31;;;-145.10;100.00
56334;BME280;42240;53.626;55.886;2023-02-11T01:50:50;79223.19;;;-145.10;100.00
56334;BME280;42240;53.626;55.886;2023-02-11T01:52:32;79215.28;;;-145.10;100.00
56334;BME280;42240;53.626;55.886;2023-02-11T01:54:09;79233.09;;;-145.10;100.00
56334;BME280;42240;53.626;55.886;2023-02-11T01:56:02;79215.28;;;-145.10;100.00
56334;BME280;42240;53.626;55.886;2023-02-11T01:57:58;79211.31;;;-145.10;100.00
56334;BME280;42240;53.626;55.886;2023-02-11T01:59:40;79205.38;;;-145.10;100.00
56334;BME280;42240;53.626;55.886;2023-02-11T02:01:17;79199.44;;;-145.10;100.00
56334;BME280;42240;53.626;55.886;2023-02-11T02:04:39;79197.47;;;-145.10;100.00
56334;BME280;42240;53.626;55.886;2023-02-11T02:06:23;79203.41;;;-145.10;100.00
56334;BME280;42240;53.626;55.886;2023-02-11T02:08:22;79203.41;;;-145.10;100.00
56334;BME280;42240;53.626;55.886;2023-02-11T02:10:02;79235.06;;;-145.10;100.00
56334;BME280;42240;53.626;55.886;2023-02-11T02:11:36;79229.13;;;-145.10;100.00
56334;BME280;42240;53.626;55.886;2023-02-11T02:13:10;79223.19;;;-145.10;100.00
56334;BME280;42240;53.626;55.886;2023-02-11T02:14:43;79223.19;;;-145.10;100.00
56334;BME280;42240;53.626;55.886;2023-02-11T02:16:19;79219.25;;;-145.10;100.00
56334;BME280;42240;53.626;55.886;2023-02-11T02:30:02;79223.19;;;-145.10;100.00
56334;BME280;42240;53.626;55.886;2023-02-11T02:33:24;79215.28;;;-145.10;100.00
56334;BME280;42240;53.626;55.886;2023-02-11T02:37:13;79203.41;;;-145.10;100.00
56334;BME280;42240;53.626;55.886;2023-02-11T02:38:53;79215.28;;;-145.10;100.00
56334;BME280;42240;53.626;55.886;2023-02-11T02:40:33;79213.31;;;-145.10;100.00
56334;BME280;42240;53.626;55.886;2023-02-11T02:42:08;79207.38;;;-145.10;100.00
56334;BME280;42240;53.626;55.886;2023-02-11T02:43:45;79207.38;;;-145.10;100.00
56334;BME280;42240;53.626;55.886;2023-02-11T02:45:19;79197.47;;;-145.10;100.00
56334;BME280;42240;53.626;55.886;2023-02-11T02:46:53;79195.50;;;-145.10;100.00
56334;BME280;42240;53.626;55.886;2023-02-11T02:48:28;79215.28;;;-145.10;100.00
56334;BME280;42240;53.626;55.886;2023-02-11T02:50:02;79215.28;;;-145.10;100.00
56334;BME280;42240;53.626;55.886;2023-02-11T02:56:01;79237.03;;;-145.10;100.00
56334;BME280;42240;53.626;55.886;2023-02-11T03:03:16;79250.91;;;-145.10;100.00
56334;BME280;42240;53.626;55.886;2023-02-11T03:05:29;79264.75;;;-145.10;100.00
56334;BME280;42240;53.626;55.886;2023-02-11T03:09:12;79274.63;;;-145.10;100.00
56334;BME280;42240;53.626;55.886;2023-02-11T03:10:49;79272.66;;;-145.10;100.00
56334;BME280;42240;53.626;55.886;2023-02-11T03:12:23;79262.78;;;-145.10;100.00
56334;BME280;42240;53.626;55.886;2023-02-11T03:14:01;79260.78;;;-145.10;100.00
56334;BME280;42240;53.626;55.886;2023-02-11T03:15:42;79252.88;;;-145.10;100.00
56334;BME280;42240;53.626;55.886;2023-02-11T03:17:16;79254.84;;;-145.10;100.00
56334;BME280;42240;53.626;55.886;2023-02-11T03:19:02;79262.78;;;-145.10;100.00
56334;BME280;42240;53.626;55.886;2023-02-11T03:20:39;79256.84;;;-145.10;100.00
56334;BME280;42240;53.626;55.886;2023-02-11T03:22:19;79256.84;;;-145.10;100.00
56334;BME280;42240;53.626;55.886;2023-02-11T03:23:59;79270.69;;;-145.10;100.00
56334;BME280;42240;53.626;55.886;2023-02-11T03:25:41;79266.72;;;-145.10;100.00
56334;BME280;42240;53.626;55.886;2023-02-11T03:28:15;79264.75;;;-145.10;100.00
56334;BME280;42240;53.626;55.886;2023-02-11T03:29:43;79250.91;;;-145.10;100.00
56334;BME280;42240;53.626;55.886;2023-02-11T03:31:27;79250.91;;;-145.10;100.00
56334;BME280;42240;53.626;55.886;2023-02-11T03:33:13;79235.06;;;-145.10;100.00
56334;BME280;42240;53.626;55.886;2023-02-11T03:34:59;79256.84;;;-145.10;100.00
56334;BME280;42240;53.626;55.886;2023-02-11T03:36:41;79248.91;;;-145.10;100.00
56334;BME280;42240;53.626;55.886;2023-02-11T03:38:26;79242.97;;;-145.10;100.00
56334;BME280;42240;53.626;55.886;2023-02-11T03:40:07;79254.84;;;-145.10;100.00
56334;BME280;42240;53.626;55.886;2023-02-11T03:41:42;79244.97;;;-145.10;100.00
56334;BME280;42240;53.626;55.886;2023-02-11T03:43:21;79237.03;;;-145.10;100.00
56334;BME280;42240;53.626;55.886;2023-02-11T03:45:04;79235.06;;;-145.10;100.00
56334;BME280;42240;53.626;55.886;2023-02-11T03:46:37;79227.16;;;-145.10;100.00
56334;BME280;42240;53.626;55.886;2023-02-11T03:48:15;79237.03;;;-145.10;100.00
56334;BME280;42240;53.626;55.886;2023-02-11T03:49:52;79235.06;;;-145.10;100.00
56334;BME280;42240;53.626;55.886;2023-02-11T03:51:28;79242.97;;;-145.10;100.00
56334;BME280;42240;53.626;55.886;2023-02-11T03:53:03;79250.91;;;-145.10;100.00
56334;BME280;42240;53.626;55.886;2023-02-11T03:54:38;79248.91;;;-145.10;100.00
56334;BME280;42240;53.626;55.886;2023-02-11T03:56:19;79258.81;;;-145.10;100.00
56334;BME280;42240;53.626;55.886;2023-02-11T03:57:53;79242.97;;;-145.10;100.00
56334;BME280;42240;53.626;55.886;2023-02-11T03:59:27;79258.81;;;-145.10;100.00
56334;BME280;42240;53.626;55.886;2023-02-11T04:01:00;79244.97;;;-145.10;100.00
56334;BME280;42240;53.626;55.886;2023-02-11T04:02:36;79242.97;;;-145.10;100.00
56334;BME280;42240;53.626;55.886;2023-02-11T04:04:09;79223.19;;;-145.10;100.00
56334;BME280;42240;53.626;55.886;2023-02-11T04:05:42;79242.97;;;-145.10;100.00
56334;BME280;42240;53.626;55.886;2023-02-11T04:07:15;79219.25;;;-145.10;100.00
56334;BME280;42240;53.626;55.886;2023-02-11T04:08:48;79215.28;;;-145.10;100.00
56334;BME280;42240;53.626;55.886;2023-02-11T04:10:21;79211.31;;;-145.10;100.00
56334;BME280;42240;53.626;55.886;2023-02-11T04:11:54;79203.41;;;-145.10;100.00
56334;BME280;42240;53.626;55.886;2023-02-11T04:13:27;79207.38;;;-145.10;100.00
56334;BME280;42240;53.626;55.886;2023-02-11T04:15:00;79205.38;;;-145.10;100.00
56334;BME280;42240;53.626;55.886;2023-02-11T04:16:33;79195.50;;;-145.10;100.00
56334;BME280;42240;53.626;55.886;2023-02-11T04:18:06;79193.50;;;-145.10;100.00
56334;BME280;42240;53.626;55.886;2023-02-11T04:19:40;79187.56;;;-145.10;100.00
56334;BME280;42240;53.626;55.886;2023-02-11T04:21:13;79185.59;;;-145.10;100.00
56334;BME280;42240;53.626;55.886;2023-02-11T04:22:46;79179.66;;;-145.10;100.00
56334;BME280;42240;53.626;55.886;2023-02-11T04:24:19;79185.59;;;-145.10;100.00
56334;BME280;42240;53.626;55.886;2023-02-11T04:25:52;79183.63;;;-145.10;100.00
56334;BME280;42240;53.626;55.886;2023-02-11T04:27:25;79173.72;;;-145.10;100.00
56334;BME280;42240;53.626;55.886;2023-02-11T04:28:58;79175.72;;;-145.10;100.00
56334;BME280;42240;53.626;55.886;2023-02-11T04:30:31;79244.97;;;-145.10;100.00
56334;BME280;42240;53.626;55.886;2023-02-11T04:32:04;79148.00;;;-145.10;100.00
56334;BME280;42240;53.626;55.886;2023-02-11T04:33:37;79148.00;;;-145.10;100.00
56334;BME280;42240;53.626;55.886;2023-02-11T04:35:10;79144.03;;;-145.10;100.00
56334;BME280;42240;53.626;55.886;2023-02-11T04:36:43;79142.06;;;-145.10;100.00
56334;BME280;42240;53.626;55.886;2023-02-11T04:38:16;79142.06;;;-145.10;100.00
56334;BME280;42240;53.626;55.886;2023-02-11T04:39:50;79146.03;;;-145.10;100.00
56334;BME280;42240;53.626;55.886;2023-02-11T04:41:23;79132.19;;;-145.10;100.00
56334;BME280;42240;53.626;55.886;2023-02-11T04:42:56;79124.25;;;-145.10;100.00
56334;BME280;42240;53.626;55.886;2023-02-11T04:44:29;79132.19;;;-145.10;100.00
56334;BME280;42240;53.626;55.886;2023-02-11T04:46:02;79118.31;;;-145.10;100.00
56334;BME280;42240;53.626;55.886;2023-02-11T04:47:35;79106.44;;;-145.10;100.00
56334;BME280;42240;53.626;55.886;2023-02-11T04:49:12;79108.44;;;-145.10;100.00
56334;BME280;42240;53.626;55.886;2023-02-11T04:50:45;79100.53;;;-145.10;100.00
56334;BME280;42240;53.626;55.886;2023-02-11T04:52:18;79100.53;;;-145.10;100.00
56334;BME280;42240;53.626;55.886;2023-02-11T04:53:51;79100.53;;;-145.10;100.00
56334;BME280;42240;53.626;55.886;2023-02-11T04:55:24;79096.56;;;-145.10;100.00
56334;BME280;42240;53.626;55.886;2023-02-11T04:56:57;79098.53;;;-145.10;100.00
56334;BME280;42240;53.626;55.886;2023-02-11T04:58:30;79100.53;;;-145.10;100.00
56334;BME280;42240;53.626;55.886;2023-02-11T05:00:04;79088.66;;;-145.10;100.00
56334;BME280;42240;53.626;55.886;2023-02-11T05:01:38;79074.78;;;-145.10;100.00
56334;BME280;42240;53.626;55.886;2023-02-11T05:03:12;79066.88;;;-145.10;100.00
56334;BME280;42240;53.626;55.886;2023-02-11T05:04:45;79102.50;;;-145.10;100.00
56334;BME280;42240;53.626;55.886;2023-02-11T05:06:18;79057.00;;;-145.10;100.00
56334;BME280;42240;53.626;55.886;2023-02-11T05:07:51;79051.06;;;-145.10;100.00
56334;BME280;42240;53.626;55.886;2023-02-11T05:09:24;79053.03;;;-145.10;100.00
56334;BME280;42240;53.626;55.886;2023-02-11T05:10:58;79076.78;;;-145.10;100.00
56334;BME280;42240;53.626;55.886;2023-02-11T05:12:31;79037.19;;;-145.10;100.00
56334;BME280;42240;53.626;55.886;2023-02-11T05:14:05;79015.44;;;-145.10;100.00
56334;BME280;42240;53.626;55.886;2023-02-11T05:15:38;79001.59;;;-145.10;100.00
56334;BME280;42240;53.626;55.886;2023-02-11T05:17:11;78985.75;;;-145.10;100.00
56334;BME280;42240;53.626;55.886;2023-02-11T05:18:44;79009.50;;;-145.10;100.00
56334;BME280;42240;53.626;55.886;2023-02-11T05:20:17;78987.72;;;-145.10;100.00
56334;BME280;42240;53.626;55.886;2023-02-11T05:21:50;78985.75;;;-145.10;100.00
56334;BME280;42240;53.626;55.886;2023-02-11T05:23:35;79080.72;;;-145.10;100.00
56334;BME280;42240;53.626;55.886;2023-02-11T05:25:08;78958.06;;;-145.10;100.00
56334;BME280;42240;53.626;55.886;2023-02-11T05:26:41;78964.00;;;-145.10;100.00
56334;BME280;42240;53.626;55.886;2023-02-11T05:28:14;79009.50;;;-145.10;100.00
56334;BME280;42240;53.626;55.886;2023-02-11T05:29:47;78962.00;;;-145.10;100.00
56334;BME280;42240;53.626;55.886;2023-02-11T05:31:20;78956.06;;;-145.10;100.00
56334;BME280;42240;53.626;55.886;2023-02-11T05:32:53;78967.94;;;-145.10;100.00
56334;BME280;42240;53.626;55.886;2023-02-11T05:34:26;78973.88;;;-145.10;100.00
56334;BME280;42240;53.626;55.886;2023-02-11T05:36:04;79029.28;;;-145.10;100.00
56334;BME280;42240;53.626;55.886;2023-02-11T05:37:38;78948.16;;;-145.10;100.00
56334;BME280;42240;53.626;55.886;2023-02-11T05:39:11;78936.28;;;-145.10;100.00
56334;BME280;42240;53.626;55.886;2023-02-11T05:40:44;78938.28;;;-145.10;100.00
56334;BME280;42240;53.626;55.886;2023-02-11T05:42:17;78928.38;;;-145.10;100.00
56334;BME280;42240;53.626;55.886;2023-02-11T05:43:50;78934.31;;;-145.10;100.00
56334;BME280;42240;53.626;55.886;2023-02-11T05:45:24;78932.34;;;-145.10;100.00
56334;BME280;42240;53.626;55.886;2023-02-11T05:46:56;78916.50;;;-145.10;100.00
56334;BME280;42240;53.626;55.886;2023-02-11T05:48:30;78908.59;;;-145.10;100.00
56334;BME280;42240;53.626;55.886;2023-02-11T05:50:03;79017.41;;;-145.10;100.00
56334;BME280;42240;53.626;55.886;2023-02-11T05:51:36;78886.81;;;-145.10;100.00
56334;BME280;42240;53.626;55.886;2023-02-11T05:53:09;78865.06;;;-145.10;100.00
56334;BME280;42240;53.626;55.886;2023-02-11T05:54:43;78886.81;;;-145.10;100.00
56334;BME280;42240;53.626;55.886;2023-02-11T05:56:16;78884.84;;;-145.10;100.00
56334;BME280;42240;53.626;55.886;2023-02-11T05:57:49;78896.72;;;-145.10;100.00
56334;BME280;42240;53.626;55.886;2023-02-11T05:59:22;78896.72;;;-145.10;100.00
56334;BME280;42240;53.626;55.886;2023-02-11T06:00:55;78863.09;;;-145.10;100.00
56334;BME280;42240;53.626;55.886;2023-02-11T06:02:28;78872.97;;;-145.10;100.00
56334;BME280;42240;53.626;55.886;2023-02-11T06:04:01;78835.38;;;-145.10;100.00
56334;BME280;42240;53.626;55.886;2023-02-11T06:05:34;78851.22;;;-145.10;100.00
56334;BME280;42240;53.626;55.886;2023-02-11T06:07:07;78688.97;;;-145.10;100.00
56334;BME280;42240;53.626;55.886;2023-02-11T06:08:40;78469.38;;;-145.10;100.00
56334;BME280;42240;53.626;55.886;2023-02-11T06:10:14;78309.13;;;-145.10;100.00
56334;BME280;42240;53.626;55.886;2023-02-11T06:11:47;78198.34;;;-145.10;93.69
56334;BME280;42240;53.626;55.886;2023-02-11T06:13:20;78119.22;;;-145.10;86.17
56334;BME280;42240;53.626;55.886;2023-02-11T06:14:53;78059.88;;;-145.10;75.44
56334;BME280;42240;53.626;55.886;2023-02-11T06:16:26;78073.75;;;-145.10;67.24
56334;BME280;42240;53.626;55.886;2023-02-11T06:18:00;78127.16;;;-145.10;62.12
56334;BME280;42240;53.626;55.886;2023-02-11T06:19:33;78048.03;;;-145.10;60.94
56334;BME280;42240;53.626;55.886;2023-02-11T06:21:07;78091.53;;;-145.10;56.92
56334;BME280;42240;53.626;55.886;2023-02-11T06:22:41;78249.78;;;-145.10;57.07
56334;BME280;42240;53.626;55.886;2023-02-11T06:24:14;78352.66;;;-145.10;58.19
56334;BME280;42240;53.626;55.886;2023-02-11T06:26:00;78196.38;;;-145.10;58.53
56334;BME280;42240;53.626;55.886;2023-02-11T06:27:33;78131.09;;;-145.10;56.27
56334;BME280;42240;53.626;55.886;2023-02-11T06:29:06;78040.09;;;-145.10;54.46
56334;BME280;42240;53.626;55.886;2023-02-11T06:30:40;77966.91;;;-145.10;52.67
56334;BME280;42240;53.626;55.886;2023-02-11T06:32:13;77976.81;;;-145.10;50.89
56334;BME280;42240;53.626;55.886;2023-02-11T06:34:07;77901.66;;;-145.10;50.67
56334;BME280;42240;53.626;55.886;2023-02-11T06:35:40;77893.72;;;-145.10;49.79
56334;BME280;42240;53.626;55.886;2023-02-11T06:37:13;77945.16;;;-145.10;48.26
56334;BME280;42240;53.626;55.886;2023-02-11T06:38:47;78067.81;;;-145.10;48.41
56334;BME280;42240;53.626;55.886;2023-02-11T06:40:20;78083.63;;;-145.10;48.16
56334;BME280;42240;53.626;55.886;2023-02-11T06:41:54;78216.16;;;-145.10;48.44
56334;BME280;42240;53.626;55.886;2023-02-11T06:43:27;78123.19;;;-145.10;48.76
56334;BME280;42240;53.626;55.886;2023-02-11T06:44:59;78133.09;;;-145.10;48.83
56334;BME280;42240;53.626;55.886;2023-02-11T06:46:33;78196.38;;;-145.10;48.66
56334;BME280;42240;53.626;55.886;2023-02-11T06:48:06;78202.31;;;-145.10;49.31
56334;BME280;42240;53.626;55.886;2023-02-11T06:49:39;78222.09;;;-145.10;49.45
56334;BME280;42240;53.626;55.886;2023-02-11T06:51:12;78281.44;;;-145.10;50.23
56334;BME280;42240;53.626;55.886;2023-02-11T06:52:45;78374.44;;;-145.10;51.53
56334;BME280;42240;53.626;55.886;2023-02-11T06:54:18;78429.81;;;-145.10;52.70
56334;BME280;42240;53.626;55.886;2023-02-11T06:55:51;78510.94;;;-145.10;54.56
56334;BME280;42240;53.626;55.886;2023-02-11T06:57:24;78514.88;;;-145.10;57.46
56334;BME280;42240;53.626;55.886;2023-02-11T06:58:57;78568.31;;;-145.10;58.05
56334;BME280;42240;53.626;55.886;2023-02-11T07:00:30;78576.22;;;-145.10;60.72
56334;BME280;42240;53.626;55.886;2023-02-11T07:02:03;78590.06;;;-145.10;61.50
56334;BME280;42240;53.626;55.886;2023-02-11T07:03:38;78613.81;;;-145.10;64.39
56334;BME280;42240;53.626;55.886;2023-02-11T07:05:12;78657.31;;;-145.10;66.03
56334;BME280;42240;53.626;55.886;2023-02-11T07:06:45;78639.53;;;-145.10;67.83
56334;BME280;42240;53.626;55.886;2023-02-11T07:08:17;78677.13;;;-145.10;68.67
56334;BME280;42240;53.626;55.886;2023-02-11T07:09:51;78645.47;;;-145.10;70.72
56334;BME280;42240;53.626;55.886;2023-02-11T07:11:26;78637.53;;;-145.10;70.72
56334;BME280;42240;53.626;55.886;2023-02-11T07:13:00;78594.03;;;-145.10;69.92
56334;BME280;42240;53.626;55.886;2023-02-11T07:14:33;78570.28;;;-145.10;68.98
56334;BME280;42240;53.626;55.886;2023-02-11T07:16:07;78564.34;;;-145.10;68.41
56334;BME280;42240;53.626;55.886;2023-02-11T07:17:40;78554.44;;;-145.10;68.30
56334;BME280;42240;53.626;55.886;2023-02-11T07:19:13;78625.66;;;-145.10;67.97
56334;BME280;42240;53.626;55.886;2023-02-11T07:20:47;78601.94;;;-145.10;68.65
56334;BME280;42240;53.626;55.886;2023-02-11T07:22:20;78631.59;;;-145.10;69.01
56334;BME280;42240;53.626;55.886;2023-02-11T07:23:53;78609.84;;;-145.10;69.81
56334;BME280;42240;53.626;55.886;2023-02-11T07:25:26;78528.72;;;-145.10;69.18
56334;BME280;42240;53.626;55.886;2023-02-11T07:26:59;78552.47;;;-145.10;67.74
56334;BME280;42240;53.626;55.886;2023-02-11T07:28:33;78524.78;;;-145.10;66.37
56334;BME280;42240;53.626;55.886;2023-02-11T07:30:06;78574.22;;;-145.10;66.40
56334;BME280;42240;53.626;55.886;2023-02-11T07:31:40;78596.00;;;-145.10;66.55
56334;BME280;42240;53.626;55.886;2023-02-11T07:33:13;78611.81;;;-145.10;69.39
56334;BME280;42240;53.626;55.886;2023-02-11T07:34:46;78605.88;;;-145.10;69.12
56334;BME280;42240;53.626;55.886;2023-02-11T07:36:20;78601.94;;;-145.10;71.22
56334;BME280;42240;53.626;55.886;2023-02-11T07:37:54;78601.94;;;-145.10;70.82
56334;BME280;42240;53.626;55.886;2023-02-11T07:39:27;78621.72;;;-145.10;70.15
56334;BME280;42240;53.626;55.886;2023-02-11T07:41:02;78641.50;;;-145.10;70.35
56334;BME280;42240;53.626;55.886;2023-02-11T07:42:36;78627.66;;;-145.10;71.75
56334;BME280;42240;53.626;55.886;2023-02-11T07:44:09;78673.16;;;-145.10;70.80
56334;BME280;42240;53.626;55.886;2023-02-11T07:45:41;78611.81;;;-145.10;72.12
56334;BME280;42240;53.626;55.886;2023-02-11T07:47:14;78732.50;;;-145.10;70.82
56334;BME280;42240;53.626;55.886;2023-02-11T07:48:47;78621.72;;;-145.10;72.46
56334;BME280;42240;53.626;55.886;2023-02-11T07:50:20;78649.41;;;-145.10;72.32
56334;BME280;42240;53.626;55.886;2023-02-11T07:51:53;78613.81;;;-145.10;72.49
56334;BME280;42240;53.626;55.886;2023-02-11T07:53:26;78625.66;;;-145.10;73.11
56334;BME280;42240;53.626;55.886;2023-02-11T07:54:59;78637.53;;;-145.10;71.32
56334;BME280;42240;53.626;55.886;2023-02-11T07:56:35;78609.84;;;-145.10;72.46
56334;BME280;42240;53.626;55.886;2023-02-11T07:58:09;78631.59;;;-145.10;69.23
56334;BME280;42240;53.626;55.886;2023-02-11T07:59:42;78645.47;;;-145.10;71.04
56334;BME280;42240;53.626;55.886;2023-02-11T08:01:24;78607.88;;;-145.10;70.12
56334;BME280;42240;53.626;55.886;2023-02-11T08:03:00;78609.84;;;-145.10;71.91
56334;BME280;42240;53.626;55.886;2023-02-11T08:04:33;78605.88;;;-145.10;72.37
56334;BME280;42240;53.626;55.886;2023-02-11T08:06:13;78588.09;;;-145.10;71.86
56334;BME280;42240;53.626;55.886;2023-02-11T08:07:50;78619.75;;;-145.10;71.46
56334;BME280;42240;53.626;55.886;2023-02-11T08:09:23;78643.47;;;-145.10;70.94
56334;BME280;42240;53.626;55.886;2023-02-11T08:10:57;78621.72;;;-145.10;72.95
56334;BME280;42240;53.626;55.886;2023-02-11T08:12:30;78590.06;;;-145.10;72.30
56334;BME280;42240;53.626;55.886;2023-02-11T08:14:03;78683.03;;;-145.10;71.28
56334;BME280;42240;53.626;55.886;2023-02-11T08:15:36;78530.72;;;-145.10;70.55
56334;BME280;42240;53.626;55.886;2023-02-11T08:17:09;78461.47;;;-145.10;68.30
56334;BME280;42240;53.626;55.886;2023-02-11T08:18:42;78503.00;;;-145.10;66.79
56334;BME280;42240;53.626;55.886;2023-02-11T08:20:16;78548.50;;;-145.10;66.53
56334;BME280;42240;53.626;55.886;2023-02-11T08:21:49;78520.81;;;-145.10;68.80
56334;BME280;42240;53.626;55.886;2023-02-11T08:23:22;78532.69;;;-145.10;67.83
56334;BME280;42240;53.626;55.886;2023-02-11T08:24:54;78550.50;;;-145.10;68.94
56334;BME280;42240;53.626;55.886;2023-02-11T08:26:31;78526.75;;;-145.10;69.76
56334;BME280;42240;53.626;55.886;2023-02-11T08:28:06;78588.09;;;-145.10;70.37
56334;BME280;42240;53.626;55.886;2023-02-11T08:29:40;78582.16;;;-145.10;72.11
56334;BME280;42240;53.626;55.886;2023-02-11T08:31:23;78562.38;;;-145.10;71.17